Montgomery, Missouri
Current Conditions -  °F | °C
As of 7:55 AM on Monday 22 Dec 2014 (Local Time) from KFYG Reporting Station
Unknown Precip Unknown Precip  
Wind Chill: 34°   Ceiling: 1200
Heat Index: 41°   Visibility: 2.5mi
Dew Point: 39°   Wind: 13mph
Humidity: 93%   Direction: 120°ESE
Pressure: 29.71"   Gusts: NA
Location:  39.0022°N, 91.5066°W
Report Text: KFYG 221355Z AUTO 12011KT 2 1/2SM UP BKN012 05/04 A2971 RMK AO2 P0001
Loading
Personal Weather Stations






























Interactive Weather Map New forecast layout! Learn more

10-Day Weather Forecast

Advertisements
Track Severe Weather on mobile